sensor_id;sensor_type;location;lat;lon;timestamp;P1;durP1;ratioP1;P2;durP2;ratioP2
32365;SDS011;18837;46.832;16.838;2022-08-16T00:39:40;2.70;;;2.50;;
32365;SDS011;18837;46.832;16.838;2022-08-16T00:42:05;2.90;;;2.60;;
32365;SDS011;18837;46.832;16.838;2022-08-16T00:44:31;2.80;;;2.60;;
32365;SDS011;18837;46.832;16.838;2022-08-16T00:50:29;3.17;;;2.87;;
32365;SDS011;18837;46.832;16.838;2022-08-16T00:53:06;2.90;;;2.70;;
32365;SDS011;18837;46.832;16.838;2022-08-16T00:55:34;4.33;;;2.40;;
32365;SDS011;18837;46.832;16.838;2022-08-16T00:58:02;2.93;;;2.73;;
32365;SDS011;18837;46.832;16.838;2022-08-16T01:00:29;2.83;;;2.63;;
32365;SDS011;18837;46.832;16.838;2022-08-16T01:02:58;2.80;;;2.60;;
32365;SDS011;18837;46.832;16.838;2022-08-16T01:05:42;2.63;;;2.43;;
32365;SDS011;18837;46.832;16.838;2022-08-16T01:08:09;2.33;;;2.13;;
32365;SDS011;18837;46.832;16.838;2022-08-16T01:10:37;2.80;;;2.60;;
32365;SDS011;18837;46.832;16.838;2022-08-16T01:13:46;3.03;;;2.73;;
32365;SDS011;18837;46.832;16.838;2022-08-16T01:15:56;2.80;;;2.60;;
32365;SDS011;18837;46.832;16.838;2022-08-16T01:18:31;2.70;;;2.50;;
32365;SDS011;18837;46.832;16.838;2022-08-16T01:27:27;2.83;;;2.63;;
32365;SDS011;18837;46.832;16.838;2022-08-16T01:32:38;3.43;;;2.70;;
32365;SDS011;18837;46.832;16.838;2022-08-16T01:35:11;3.13;;;2.73;;
32365;SDS011;18837;46.832;16.838;2022-08-16T01:37:43;3.20;;;2.90;;
32365;SDS011;18837;46.832;16.838;2022-08-16T01:40:24;3.20;;;2.90;;
32365;SDS011;18837;46.832;16.838;2022-08-16T01:42:52;2.93;;;2.73;;
32365;SDS011;18837;46.832;16.838;2022-08-16T01:45:18;2.93;;;2.73;;
32365;SDS011;18837;46.832;16.838;2022-08-16T01:47:45;3.20;;;2.90;;
32365;SDS011;18837;46.832;16.838;2022-08-16T01:50:13;2.90;;;2.70;;
32365;SDS011;18837;46.832;16.838;2022-08-16T01:52:39;2.80;;;2.60;;
32365;SDS011;18837;46.832;16.838;2022-08-16T02:01:05;3.40;;;3.10;;
32365;SDS011;18837;46.832;16.838;2022-08-16T02:03:31;3.70;;;3.00;;
32365;SDS011;18837;46.832;16.838;2022-08-16T02:05:57;3.27;;;2.70;;
32365;SDS011;18837;46.832;16.838;2022-08-16T02:08:23;2.90;;;2.60;;
32365;SDS011;18837;46.832;16.838;2022-08-16T02:10:51;2.83;;;2.63;;
32365;SDS011;18837;46.832;16.838;2022-08-16T02:13:37;3.20;;;2.90;;
32365;SDS011;18837;46.832;16.838;2022-08-16T02:16:07;3.07;;;2.73;;
32365;SDS011;18837;46.832;16.838;2022-08-16T02:18:34;3.37;;;3.10;;
32365;SDS011;18837;46.832;16.838;2022-08-16T02:21:00;3.47;;;3.17;;
32365;SDS011;18837;46.832;16.838;2022-08-16T02:23:27;2.93;;;2.73;;
32365;SDS011;18837;46.832;16.838;2022-08-16T02:25:53;3.10;;;2.90;;
32365;SDS011;18837;46.832;16.838;2022-08-16T02:28:18;3.10;;;2.80;;
32365;SDS011;18837;46.832;16.838;2022-08-16T02:34:07;2.90;;;2.70;;
32365;SDS011;18837;46.832;16.838;2022-08-16T02:36:33;3.00;;;2.80;;
32365;SDS011;18837;46.832;16.838;2022-08-16T02:38:59;3.60;;;2.63;;
32365;SDS011;18837;46.832;16.838;2022-08-16T02:41:25;3.10;;;2.90;;
32365;SDS011;18837;46.832;16.838;2022-08-16T02:43:51;3.97;;;3.13;;
32365;SDS011;18837;46.832;16.838;2022-08-16T02:46:17;3.07;;;2.87;;
32365;SDS011;18837;46.832;16.838;2022-08-16T02:48:58;3.10;;;2.90;;
32365;SDS011;18837;46.832;16.838;2022-08-16T02:51:24;3.23;;;2.93;;
32365;SDS011;18837;46.832;16.838;2022-08-16T02:53:51;3.10;;;2.90;;
32365;SDS011;18837;46.832;16.838;2022-08-16T02:56:18;3.00;;;2.80;;
32365;SDS011;18837;46.832;16.838;2022-08-16T02:58:45;2.90;;;2.70;;
32365;SDS011;18837;46.832;16.838;2022-08-16T03:01:15;3.20;;;3.00;;
32365;SDS011;18837;46.832;16.838;2022-08-16T03:03:56;2.93;;;2.70;;
32365;SDS011;18837;46.832;16.838;2022-08-16T03:09:55;3.03;;;2.73;;
32365;SDS011;18837;46.832;16.838;2022-08-16T03:12:21;3.17;;;2.87;;
32365;SDS011;18837;46.832;16.838;2022-08-16T03:14:47;3.40;;;2.97;;
32365;SDS011;18837;46.832;16.838;2022-08-16T03:17:13;3.77;;;3.23;;
32365;SDS011;18837;46.832;16.838;2022-08-16T03:19:39;3.00;;;2.77;;
32365;SDS011;18837;46.832;16.838;2022-08-16T03:22:05;3.30;;;3.00;;
32365;SDS011;18837;46.832;16.838;2022-08-16T03:24:40;2.90;;;2.70;;
32365;SDS011;18837;46.832;16.838;2022-08-16T03:27:06;3.30;;;3.00;;
32365;SDS011;18837;46.832;16.838;2022-08-16T03:29:32;3.20;;;2.90;;
32365;SDS011;18837;46.832;16.838;2022-08-16T03:31:58;5.57;;;3.33;;
32365;SDS011;18837;46.832;16.838;2022-08-16T03:34:25;3.03;;;2.83;;
32365;SDS011;18837;46.832;16.838;2022-08-16T03:36:51;3.13;;;2.93;;
32365;SDS011;18837;46.832;16.838;2022-08-16T03:44:58;3.60;;;3.33;;
32365;SDS011;18837;46.832;16.838;2022-08-16T03:47:24;3.73;;;3.07;;
32365;SDS011;18837;46.832;16.838;2022-08-16T03:49:51;3.07;;;2.80;;
32365;SDS011;18837;46.832;16.838;2022-08-16T03:52:21;3.13;;;2.90;;
32365;SDS011;18837;46.832;16.838;2022-08-16T03:54:47;2.93;;;2.73;;
32365;SDS011;18837;46.832;16.838;2022-08-16T03:57:23;3.40;;;3.10;;
32365;SDS011;18837;46.832;16.838;2022-08-16T03:59:49;3.73;;;3.43;;
32365;SDS011;18837;46.832;16.838;2022-08-16T04:02:14;3.33;;;3.03;;
32365;SDS011;18837;46.832;16.838;2022-08-16T04:04:43;3.13;;;2.80;;
32365;SDS011;18837;46.832;16.838;2022-08-16T04:07:09;3.47;;;3.00;;
32365;SDS011;18837;46.832;16.838;2022-08-16T04:09:35;3.23;;;2.87;;
32365;SDS011;18837;46.832;16.838;2022-08-16T04:12:01;3.50;;;3.20;;
32365;SDS011;18837;46.832;16.838;2022-08-16T04:20:38;3.30;;;3.00;;
32365;SDS011;18837;46.832;16.838;2022-08-16T04:23:04;3.37;;;3.07;;
32365;SDS011;18837;46.832;16.838;2022-08-16T04:25:32;3.37;;;3.17;;
32365;SDS011;18837;46.832;16.838;2022-08-16T04:27:58;3.33;;;3.07;;
32365;SDS011;18837;46.832;16.838;2022-08-16T04:30:24;5.93;;;3.20;;
32365;SDS011;18837;46.832;16.838;2022-08-16T04:33:00;2.93;;;2.63;;
32365;SDS011;18837;46.832;16.838;2022-08-16T04:35:26;5.10;;;3.43;;
32365;SDS011;18837;46.832;16.838;2022-08-16T04:37:52;3.30;;;3.00;;
32365;SDS011;18837;46.832;16.838;2022-08-16T04:40:19;4.13;;;2.80;;
32365;SDS011;18837;46.832;16.838;2022-08-16T04:42:46;3.57;;;3.27;;
32365;SDS011;18837;46.832;16.838;2022-08-16T04:45:12;3.33;;;3.03;;
32365;SDS011;18837;46.832;16.838;2022-08-16T04:53:36;3.47;;;3.20;;
32365;SDS011;18837;46.832;16.838;2022-08-16T04:56:03;3.70;;;2.83;;
32365;SDS011;18837;46.832;16.838;2022-08-16T04:58:28;3.20;;;3.00;;
32365;SDS011;18837;46.832;16.838;2022-08-16T05:00:55;3.60;;;3.30;;
32365;SDS011;18837;46.832;16.838;2022-08-16T05:03:22;3.33;;;3.03;;
32365;SDS011;18837;46.832;16.838;2022-08-16T05:05:48;3.50;;;3.20;;
32365;SDS011;18837;46.832;16.838;2022-08-16T05:08:30;3.90;;;3.60;;
32365;SDS011;18837;46.832;16.838;2022-08-16T05:10:58;3.10;;;2.83;;
32365;SDS011;18837;46.832;16.838;2022-08-16T05:13:26;3.40;;;3.10;;
32365;SDS011;18837;46.832;16.838;2022-08-16T05:15:52;3.53;;;3.23;;
32365;SDS011;18837;46.832;16.838;2022-08-16T05:18:18;3.17;;;2.97;;
32365;SDS011;18837;46.832;16.838;2022-08-16T05:20:44;3.57;;;3.10;;
32365;SDS011;18837;46.832;16.838;2022-08-16T05:26:23;3.70;;;3.17;;
32365;SDS011;18837;46.832;16.838;2022-08-16T05:28:50;3.17;;;2.97;;
32365;SDS011;18837;46.832;16.838;2022-08-16T05:31:16;3.80;;;3.50;;
32365;SDS011;18837;46.832;16.838;2022-08-16T05:33:42;3.63;;;3.30;;
32365;SDS011;18837;46.832;16.838;2022-08-16T05:36:08;3.57;;;3.10;;
32365;SDS011;18837;46.832;16.838;2022-08-16T05:38:35;4.60;;;2.97;;
32365;SDS011;18837;46.832;16.838;2022-08-16T05:41:10;3.00;;;2.80;;
32365;SDS011;18837;46.832;16.838;2022-08-16T05:43:36;7.77;;;3.90;;
32365;SDS011;18837;46.832;16.838;2022-08-16T05:46:02;9.50;;;5.47;;
32365;SDS011;18837;46.832;16.838;2022-08-16T05:48:28;7.53;;;5.50;;
32365;SDS011;18837;46.832;16.838;2022-08-16T05:50:53;11.23;;;5.87;;
32365;SDS011;18837;46.832;16.838;2022-08-16T05:53:19;9.73;;;5.50;;
32365;SDS011;18837;46.832;16.838;2022-08-16T05:55:45;9.80;;;5.60;;
32365;SDS011;18837;46.832;16.838;2022-08-16T05:58:27;13.40;;;5.53;;
32365;SDS011;18837;46.832;16.838;2022-08-16T06:00:56;12.43;;;5.23;;
32365;SDS011;18837;46.832;16.838;2022-08-16T06:03:25;10.67;;;5.43;;
32365;SDS011;18837;46.832;16.838;2022-08-16T06:05:50;9.03;;;5.30;;
32365;SDS011;18837;46.832;16.838;2022-08-16T06:08:16;7.50;;;5.00;;
32365;SDS011;18837;46.832;16.838;2022-08-16T06:10:42;5.27;;;4.57;;
32365;SDS011;18837;46.832;16.838;2022-08-16T06:13:07;7.67;;;4.97;;
32365;SDS011;18837;46.832;16.838;2022-08-16T06:15:38;6.43;;;5.00;;
32365;SDS011;18837;46.832;16.838;2022-08-16T06:18:04;7.37;;;4.37;;
32365;SDS011;18837;46.832;16.838;2022-08-16T06:20:30;6.33;;;4.97;;
32365;SDS011;18837;46.832;16.838;2022-08-16T06:22:56;5.60;;;4.40;;
32365;SDS011;18837;46.832;16.838;2022-08-16T06:25:23;10.37;;;4.93;;
32365;SDS011;18837;46.832;16.838;2022-08-16T06:27:50;5.10;;;4.60;;
32365;SDS011;18837;46.832;16.838;2022-08-16T06:30:17;5.87;;;4.60;;
32365;SDS011;18837;46.832;16.838;2022-08-16T06:32:48;36.30;;;7.30;;
32365;SDS011;18837;46.832;16.838;2022-08-16T06:35:17;28.83;;;6.83;;
32365;SDS011;18837;46.832;16.838;2022-08-16T06:37:43;16.87;;;5.10;;
32365;SDS011;18837;46.832;16.838;2022-08-16T06:40:09;17.70;;;5.17;;
32365;SDS011;18837;46.832;16.838;2022-08-16T06:42:35;14.50;;;5.20;;
32365;SDS011;18837;46.832;16.838;2022-08-16T06:45:01;12.80;;;5.30;;
32365;SDS011;18837;46.832;16.838;2022-08-16T06:47:27;13.20;;;5.63;;
32365;SDS011;18837;46.832;16.838;2022-08-16T06:49:56;9.90;;;5.07;;
32365;SDS011;18837;46.832;16.838;2022-08-16T06:52:22;10.53;;;5.00;;
32365;SDS011;18837;46.832;16.838;2022-08-16T06:54:47;10.97;;;5.00;;
32365;SDS011;18837;46.832;16.838;2022-08-16T06:57:13;8.03;;;5.27;;
32365;SDS011;18837;46.832;16.838;2022-08-16T06:59:42;8.03;;;5.20;;
32365;SDS011;18837;46.832;16.838;2022-08-16T07:02:08;10.17;;;4.80;;
32365;SDS011;18837;46.832;16.838;2022-08-16T07:04:33;8.53;;;4.57;;
32365;SDS011;18837;46.832;16.838;2022-08-16T07:07:01;11.23;;;5.13;;
32365;SDS011;18837;46.832;16.838;2022-08-16T07:09:42;6.33;;;5.23;;
32365;SDS011;18837;46.832;16.838;2022-08-16T07:12:08;7.90;;;5.07;;
32365;SDS011;18837;46.832;16.838;2022-08-16T07:14:33;9.40;;;4.90;;
32365;SDS011;18837;46.832;16.838;2022-08-16T07:16:59;9.47;;;4.77;;
32365;SDS011;18837;46.832;16.838;2022-08-16T07:19:26;6.33;;;4.73;;
32365;SDS011;18837;46.832;16.838;2022-08-16T07:21:54;5.80;;;4.47;;
32365;SDS011;18837;46.832;16.838;2022-08-16T07:24:29;5.63;;;4.63;;
32365;SDS011;18837;46.832;16.838;2022-08-16T07:26:55;9.40;;;4.70;;
32365;SDS011;18837;46.832;16.838;2022-08-16T07:29:24;4.57;;;3.93;;
32365;SDS011;18837;46.832;16.838;2022-08-16T07:31:50;5.20;;;4.60;;
32365;SDS011;18837;46.832;16.838;2022-08-16T07:34:16;7.33;;;4.67;;
32365;SDS011;18837;46.832;16.838;2022-08-16T07:36:42;6.10;;;4.43;;
32365;SDS011;18837;46.832;16.838;2022-08-16T07:39:09;4.90;;;4.23;;
32365;SDS011;18837;46.832;16.838;2022-08-16T07:44:23;5.00;;;4.40;;
32365;SDS011;18837;46.832;16.838;2022-08-16T07:46:49;5.40;;;4.50;;
32365;SDS011;18837;46.832;16.838;2022-08-16T07:49:15;4.83;;;4.37;;
32365;SDS011;18837;46.832;16.838;2022-08-16T07:51:41;6.03;;;4.23;;
32365;SDS011;18837;46.832;16.838;2022-08-16T07:54:07;5.70;;;4.20;;
32365;SDS011;18837;46.832;16.838;2022-08-16T07:56:34;4.83;;;4.23;;
32365;SDS011;18837;46.832;16.838;2022-08-16T07:59:00;4.67;;;4.20;;
32365;SDS011;18837;46.832;16.838;2022-08-16T08:01:26;6.10;;;4.37;;
32365;SDS011;18837;46.832;16.838;2022-08-16T08:03:54;6.80;;;4.20;;
32365;SDS011;18837;46.832;16.838;2022-08-16T08:06:20;4.70;;;3.90;;
32365;SDS011;18837;46.832;16.838;2022-08-16T08:08:47;3.87;;;3.57;;
32365;SDS011;18837;46.832;16.838;2022-08-16T08:11:13;5.10;;;3.53;;
32365;SDS011;18837;46.832;16.838;2022-08-16T08:13:55;4.63;;;4.10;;
32365;SDS011;18837;46.832;16.838;2022-08-16T08:16:23;5.20;;;3.97;;
32365;SDS011;18837;46.832;16.838;2022-08-16T08:18:50;4.60;;;4.20;;
32365;SDS011;18837;46.832;16.838;2022-08-16T08:21:18;4.83;;;3.87;;
32365;SDS011;18837;46.832;16.838;2022-08-16T08:23:45;4.57;;;4.17;;
32365;SDS011;18837;46.832;16.838;2022-08-16T08:26:12;4.47;;;4.07;;
32365;SDS011;18837;46.832;16.838;2022-08-16T08:28:38;4.80;;;4.40;;
32365;SDS011;18837;46.832;16.838;2022-08-16T08:31:10;4.73;;;4.27;;
32365;SDS011;18837;46.832;16.838;2022-08-16T08:33:37;5.20;;;3.97;;
32365;SDS011;18837;46.832;16.838;2022-08-16T08:36:03;4.17;;;3.83;;
32365;SDS011;18837;46.832;16.838;2022-08-16T08:38:32;4.50;;;4.10;;
32365;SDS011;18837;46.832;16.838;2022-08-16T08:41:00;4.30;;;3.90;;
32365;SDS011;18837;46.832;16.838;2022-08-16T08:43:26;6.23;;;3.77;;
32365;SDS011;18837;46.832;16.838;2022-08-16T08:45:53;4.07;;;3.63;;
32365;SDS011;18837;46.832;16.838;2022-08-16T08:48:24;4.37;;;3.97;;
32365;SDS011;18837;46.832;16.838;2022-08-16T08:50:50;4.23;;;3.83;;
32365;SDS011;18837;46.832;16.838;2022-08-16T08:53:16;5.80;;;3.50;;
32365;SDS011;18837;46.832;16.838;2022-08-16T08:55:42;4.30;;;3.90;;
32365;SDS011;18837;46.832;16.838;2022-08-16T08:58:09;3.90;;;3.60;;
32365;SDS011;18837;46.832;16.838;2022-08-16T09:00:35;3.87;;;3.50;;
32365;SDS011;18837;46.832;16.838;2022-08-16T09:03:03;4.60;;;4.10;;
32365;SDS011;18837;46.832;16.838;2022-08-16T09:08:29;3.70;;;3.40;;
32365;SDS011;18837;46.832;16.838;2022-08-16T09:10:56;3.63;;;3.33;;
32365;SDS011;18837;46.832;16.838;2022-08-16T09:13:23;3.33;;;3.13;;
32365;SDS011;18837;46.832;16.838;2022-08-16T09:15:50;4.00;;;3.40;;
32365;SDS011;18837;46.832;16.838;2022-08-16T09:18:16;3.93;;;3.57;;
32365;SDS011;18837;46.832;16.838;2022-08-16T09:20:42;3.60;;;3.10;;
32365;SDS011;18837;46.832;16.838;2022-08-16T09:23:09;3.87;;;3.53;;
32365;SDS011;18837;46.832;16.838;2022-08-16T09:25:36;4.37;;;3.40;;
32365;SDS011;18837;46.832;16.838;2022-08-16T09:28:03;3.83;;;3.50;;
32365;SDS011;18837;46.832;16.838;2022-08-16T09:30:29;3.50;;;3.20;;
32365;SDS011;18837;46.832;16.838;2022-08-16T09:32:58;3.60;;;3.30;;
32365;SDS011;18837;46.832;16.838;2022-08-16T09:35:23;4.00;;;3.40;;
32365;SDS011;18837;46.832;16.838;2022-08-16T09:37:50;3.37;;;3.07;;
32365;SDS011;18837;46.832;16.838;2022-08-16T09:43:13;3.17;;;2.97;;
32365;SDS011;18837;46.832;16.838;2022-08-16T09:45:41;3.70;;;3.40;;
32365;SDS011;18837;46.832;16.838;2022-08-16T09:48:07;3.43;;;3.17;;
32365;SDS011;18837;46.832;16.838;2022-08-16T09:50:35;3.17;;;2.93;;
32365;SDS011;18837;46.832;16.838;2022-08-16T09:53:02;3.23;;;2.97;;
32365;SDS011;18837;46.832;16.838;2022-08-16T09:55:29;3.47;;;3.03;;
32365;SDS011;18837;46.832;16.838;2022-08-16T09:58:01;3.47;;;3.17;;
32365;SDS011;18837;46.832;16.838;2022-08-16T10:00:28;3.10;;;2.90;;
32365;SDS011;18837;46.832;16.838;2022-08-16T10:02:54;3.47;;;3.13;;
32365;SDS011;18837;46.832;16.838;2022-08-16T10:05:19;3.40;;;3.10;;
32365;SDS011;18837;46.832;16.838;2022-08-16T10:07:45;3.13;;;2.80;;
32365;SDS011;18837;46.832;16.838;2022-08-16T10:10:16;3.57;;;3.07;;
32365;SDS011;18837;46.832;16.838;2022-08-16T10:12:46;3.43;;;3.13;;
32365;SDS011;18837;46.832;16.838;2022-08-16T10:18:33;3.73;;;3.37;;
32365;SDS011;18837;46.832;16.838;2022-08-16T10:20:59;4.20;;;2.73;;
32365;SDS011;18837;46.832;16.838;2022-08-16T10:23:25;3.27;;;2.93;;
32365;SDS011;18837;46.832;16.838;2022-08-16T10:25:53;3.60;;;3.13;;
32365;SDS011;18837;46.832;16.838;2022-08-16T10:28:19;3.33;;;2.73;;
32365;SDS011;18837;46.832;16.838;2022-08-16T10:30:45;3.20;;;2.90;;
32365;SDS011;18837;46.832;16.838;2022-08-16T10:33:14;2.90;;;2.70;;
32365;SDS011;18837;46.832;16.838;2022-08-16T10:35:40;3.40;;;3.10;;
32365;SDS011;18837;46.832;16.838;2022-08-16T10:38:06;2.90;;;2.70;;
32365;SDS011;18837;46.832;16.838;2022-08-16T10:40:32;5.10;;;2.90;;
32365;SDS011;18837;46.832;16.838;2022-08-16T10:42:58;2.90;;;2.70;;
32365;SDS011;18837;46.832;16.838;2022-08-16T10:45:24;2.90;;;2.70;;
32365;SDS011;18837;46.832;16.838;2022-08-16T10:48:00;2.93;;;2.73;;
32365;SDS011;18837;46.832;16.838;2022-08-16T10:53:26;2.73;;;2.53;;
32365;SDS011;18837;46.832;16.838;2022-08-16T10:55:53;3.00;;;2.80;;
32365;SDS011;18837;46.832;16.838;2022-08-16T10:58:19;3.03;;;2.60;;
32365;SDS011;18837;46.832;16.838;2022-08-16T11:00:44;2.80;;;2.60;;
32365;SDS011;18837;46.832;16.838;2022-08-16T11:03:10;2.87;;;2.67;;
32365;SDS011;18837;46.832;16.838;2022-08-16T11:05:37;2.90;;;2.60;;
32365;SDS011;18837;46.832;16.838;2022-08-16T11:08:05;3.00;;;2.57;;
32365;SDS011;18837;46.832;16.838;2022-08-16T11:10:36;2.47;;;2.27;;
32365;SDS011;18837;46.832;16.838;2022-08-16T11:13:08;3.00;;;2.80;;
32365;SDS011;18837;46.832;16.838;2022-08-16T11:15:36;2.70;;;2.50;;
32365;SDS011;18837;46.832;16.838;2022-08-16T11:18:03;2.80;;;2.60;;
32365;SDS011;18837;46.832;16.838;2022-08-16T11:20:30;2.77;;;2.50;;
32365;SDS011;18837;46.832;16.838;2022-08-16T11:28:37;3.83;;;2.70;;
32365;SDS011;18837;46.832;16.838;2022-08-16T11:31:03;2.63;;;2.43;;
32365;SDS011;18837;46.832;16.838;2022-08-16T11:33:29;2.93;;;2.70;;
32365;SDS011;18837;46.832;16.838;2022-08-16T11:35:55;2.80;;;2.60;;
32365;SDS011;18837;46.832;16.838;2022-08-16T11:38:21;2.70;;;2.50;;
32365;SDS011;18837;46.832;16.838;2022-08-16T11:43:38;2.80;;;2.60;;
32365;SDS011;18837;46.832;16.838;2022-08-16T11:46:07;2.60;;;2.43;;
32365;SDS011;18837;46.832;16.838;2022-08-16T11:48:35;2.77;;;2.57;;
32365;SDS011;18837;46.832;16.838;2022-08-16T11:51:01;2.63;;;2.43;;
32365;SDS011;18837;46.832;16.838;2022-08-16T11:53:28;2.80;;;2.60;;
32365;SDS011;18837;46.832;16.838;2022-08-16T11:55:56;2.83;;;2.63;;
32365;SDS011;18837;46.832;16.838;2022-08-16T11:58:35;3.17;;;2.80;;
32365;SDS011;18837;46.832;16.838;2022-08-16T12:01:15;2.80;;;2.60;;
32365;SDS011;18837;46.832;16.838;2022-08-16T12:03:50;3.20;;;3.00;;
32365;SDS011;18837;46.832;16.838;2022-08-16T12:06:16;3.07;;;2.80;;
32365;SDS011;18837;46.832;16.838;2022-08-16T12:08:43;2.43;;;2.23;;
32365;SDS011;18837;46.832;16.838;2022-08-16T12:11:11;2.60;;;2.40;;
32365;SDS011;18837;46.832;16.838;2022-08-16T12:13:38;2.60;;;2.40;;
32365;SDS011;18837;46.832;16.838;2022-08-16T12:16:10;2.87;;;2.67;;
32365;SDS011;18837;46.832;16.838;2022-08-16T12:18:36;3.00;;;2.47;;
32365;SDS011;18837;46.832;16.838;2022-08-16T12:21:04;2.60;;;2.40;;
32365;SDS011;18837;46.832;16.838;2022-08-16T12:23:29;2.80;;;2.60;;
32365;SDS011;18837;46.832;16.838;2022-08-16T12:25:55;2.40;;;2.20;;
32365;SDS011;18837;46.832;16.838;2022-08-16T12:28:22;2.83;;;2.43;;
32365;SDS011;18837;46.832;16.838;2022-08-16T12:30:48;2.90;;;2.70;;
32365;SDS011;18837;46.832;16.838;2022-08-16T12:33:26;2.73;;;2.53;;
32365;SDS011;18837;46.832;16.838;2022-08-16T12:36:04;2.70;;;2.50;;
32365;SDS011;18837;46.832;16.838;2022-08-16T12:38:30;2.47;;;2.27;;
32365;SDS011;18837;46.832;16.838;2022-08-16T12:40:56;2.90;;;2.70;;
32365;SDS011;18837;46.832;16.838;2022-08-16T12:43:22;2.67;;;2.47;;
32365;SDS011;18837;46.832;16.838;2022-08-16T12:45:49;2.87;;;2.67;;
32365;SDS011;18837;46.832;16.838;2022-08-16T12:48:18;2.43;;;2.23;;
32365;SDS011;18837;46.832;16.838;2022-08-16T12:51:11;3.03;;;2.43;;
32365;SDS011;18837;46.832;16.838;2022-08-16T12:53:39;2.80;;;2.60;;
32365;SDS011;18837;46.832;16.838;2022-08-16T12:56:05;2.50;;;2.30;;
32365;SDS011;18837;46.832;16.838;2022-08-16T12:58:32;2.60;;;2.40;;
32365;SDS011;18837;46.832;16.838;2022-08-16T13:00:58;2.70;;;2.50;;
32365;SDS011;18837;46.832;16.838;2022-08-16T13:03:25;3.17;;;2.37;;
32365;SDS011;18837;46.832;16.838;2022-08-16T13:05:59;2.73;;;2.53;;
32365;SDS011;18837;46.832;16.838;2022-08-16T13:08:45;2.67;;;2.47;;
32365;SDS011;18837;46.832;16.838;2022-08-16T13:11:29;3.30;;;3.00;;
32365;SDS011;18837;46.832;16.838;2022-08-16T13:13:59;3.30;;;2.80;;
32365;SDS011;18837;46.832;16.838;2022-08-16T13:16:25;2.77;;;2.57;;
32365;SDS011;18837;46.832;16.838;2022-08-16T13:18:50;8.07;;;2.93;;
32365;SDS011;18837;46.832;16.838;2022-08-16T13:21:16;7.13;;;2.93;;
32365;SDS011;18837;46.832;16.838;2022-08-16T13:23:42;8.43;;;3.03;;
32365;SDS011;18837;46.832;16.838;2022-08-16T13:26:14;9.17;;;3.57;;
32365;SDS011;18837;46.832;16.838;2022-08-16T13:28:39;6.00;;;3.30;;
32365;SDS011;18837;46.832;16.838;2022-08-16T13:31:05;10.00;;;3.07;;
32365;SDS011;18837;46.832;16.838;2022-08-16T13:33:32;5.53;;;2.80;;
32365;SDS011;18837;46.832;16.838;2022-08-16T13:36:03;9.30;;;3.27;;
32365;SDS011;18837;46.832;16.838;2022-08-16T13:38:31;3.73;;;2.53;;
32365;SDS011;18837;46.832;16.838;2022-08-16T13:41:01;6.67;;;2.87;;
32365;SDS011;18837;46.832;16.838;2022-08-16T13:43:38;4.93;;;2.80;;
32365;SDS011;18837;46.832;16.838;2022-08-16T13:46:10;4.73;;;2.70;;
32365;SDS011;18837;46.832;16.838;2022-08-16T13:48:36;6.70;;;3.27;;
32365;SDS011;18837;46.832;16.838;2022-08-16T13:51:02;5.07;;;2.90;;
32365;SDS011;18837;46.832;16.838;2022-08-16T13:53:28;4.47;;;2.93;;
32365;SDS011;18837;46.832;16.838;2022-08-16T13:55:54;5.77;;;2.70;;
32365;SDS011;18837;46.832;16.838;2022-08-16T13:58:21;3.27;;;2.70;;
32365;SDS011;18837;46.832;16.838;2022-08-16T14:00:48;3.60;;;2.83;;
32365;SDS011;18837;46.832;16.838;2022-08-16T14:03:15;7.17;;;3.30;;
32365;SDS011;18837;46.832;16.838;2022-08-16T14:05:41;3.43;;;2.63;;
32365;SDS011;18837;46.832;16.838;2022-08-16T14:08:07;5.70;;;2.97;;
32365;SDS011;18837;46.832;16.838;2022-08-16T14:10:32;6.57;;;2.70;;
32365;SDS011;18837;46.832;16.838;2022-08-16T14:12:58;3.13;;;2.83;;
32365;SDS011;18837;46.832;16.838;2022-08-16T14:15:43;4.50;;;2.80;;
32365;SDS011;18837;46.832;16.838;2022-08-16T14:21:00;2.80;;;2.60;;
32365;SDS011;18837;46.832;16.838;2022-08-16T14:23:25;4.60;;;2.90;;
32365;SDS011;18837;46.832;16.838;2022-08-16T14:25:51;5.67;;;2.90;;
32365;SDS011;18837;46.832;16.838;2022-08-16T14:28:17;3.57;;;2.80;;
32365;SDS011;18837;46.832;16.838;2022-08-16T14:30:43;4.30;;;2.57;;
32365;SDS011;18837;46.832;16.838;2022-08-16T14:33:09;3.20;;;2.90;;
32365;SDS011;18837;46.832;16.838;2022-08-16T14:35:35;4.40;;;3.43;;
32365;SDS011;18837;46.832;16.838;2022-08-16T14:38:01;4.67;;;2.90;;
32365;SDS011;18837;46.832;16.838;2022-08-16T14:40:28;3.47;;;2.73;;
32365;SDS011;18837;46.832;16.838;2022-08-16T14:42:54;3.37;;;3.10;;
32365;SDS011;18837;46.832;16.838;2022-08-16T14:45:22;5.00;;;2.80;;
32365;SDS011;18837;46.832;16.838;2022-08-16T14:47:49;3.80;;;3.43;;
32365;SDS011;18837;46.832;16.838;2022-08-16T14:50:17;4.33;;;2.80;;
32365;SDS011;18837;46.832;16.838;2022-08-16T14:52:49;4.07;;;3.17;;
32365;SDS011;18837;46.832;16.838;2022-08-16T14:55:23;3.93;;;3.23;;
32365;SDS011;18837;46.832;16.838;2022-08-16T14:57:51;2.87;;;2.40;;
32365;SDS011;18837;46.832;16.838;2022-08-16T15:00:17;3.40;;;3.10;;
32365;SDS011;18837;46.832;16.838;2022-08-16T15:02:43;3.30;;;3.00;;
32365;SDS011;18837;46.832;16.838;2022-08-16T15:05:10;3.13;;;2.80;;
32365;SDS011;18837;46.832;16.838;2022-08-16T15:07:36;3.90;;;3.00;;
32365;SDS011;18837;46.832;16.838;2022-08-16T15:10:03;3.90;;;3.00;;
32365;SDS011;18837;46.832;16.838;2022-08-16T15:12:30;3.23;;;2.90;;
32365;SDS011;18837;46.832;16.838;2022-08-16T15:14:57;3.37;;;3.10;;
32365;SDS011;18837;46.832;16.838;2022-08-16T15:17:23;2.93;;;2.73;;
32365;SDS011;18837;46.832;16.838;2022-08-16T15:19:51;3.10;;;2.90;;
32365;SDS011;18837;46.832;16.838;2022-08-16T15:22:27;3.37;;;3.07;;
32365;SDS011;18837;46.832;16.838;2022-08-16T15:24:59;3.43;;;2.80;;
32365;SDS011;18837;46.832;16.838;2022-08-16T15:27:36;3.70;;;3.20;;
32365;SDS011;18837;46.832;16.838;2022-08-16T15:30:21;3.23;;;3.03;;
32365;SDS011;18837;46.832;16.838;2022-08-16T15:32:49;3.13;;;2.80;;
32365;SDS011;18837;46.832;16.838;2022-08-16T15:35:15;3.43;;;3.13;;
32365;SDS011;18837;46.832;16.838;2022-08-16T15:37:42;3.43;;;3.03;;
32365;SDS011;18837;46.832;16.838;2022-08-16T15:40:09;2.90;;;2.70;;
32365;SDS011;18837;46.832;16.838;2022-08-16T15:42:37;3.20;;;2.97;;
32365;SDS011;18837;46.832;16.838;2022-08-16T15:45:26;3.57;;;2.90;;
32365;SDS011;18837;46.832;16.838;2022-08-16T15:48:11;3.33;;;3.13;;
32365;SDS011;18837;46.832;16.838;2022-08-16T15:50:37;3.00;;;2.80;;
32365;SDS011;18837;46.832;16.838;2022-08-16T15:53:25;3.33;;;3.13;;
32365;SDS011;18837;46.832;16.838;2022-08-16T15:55:55;3.67;;;3.37;;
32365;SDS011;18837;46.832;16.838;2022-08-16T15:58:22;3.13;;;2.93;;
32365;SDS011;18837;46.832;16.838;2022-08-16T16:01:01;3.40;;;3.10;;
32365;SDS011;18837;46.832;16.838;2022-08-16T16:03:39;3.20;;;3.00;;
32365;SDS011;18837;46.832;16.838;2022-08-16T16:06:05;3.10;;;2.80;;
32365;SDS011;18837;46.832;16.838;2022-08-16T16:08:31;4.00;;;3.20;;
32365;SDS011;18837;46.832;16.838;2022-08-16T16:10:59;3.70;;;3.40;;
32365;SDS011;18837;46.832;16.838;2022-08-16T16:13:27;4.10;;;2.90;;
32365;SDS011;18837;46.832;16.838;2022-08-16T16:15:54;2.80;;;2.60;;
32365;SDS011;18837;46.832;16.838;2022-08-16T16:18:24;3.30;;;3.00;;
32365;SDS011;18837;46.832;16.838;2022-08-16T16:20:54;3.63;;;2.87;;
32365;SDS011;18837;46.832;16.838;2022-08-16T16:23:24;3.40;;;3.07;;
32365;SDS011;18837;46.832;16.838;2022-08-16T16:25:52;3.30;;;3.00;;
32365;SDS011;18837;46.832;16.838;2022-08-16T16:28:20;3.57;;;3.30;;
32365;SDS011;18837;46.832;16.838;2022-08-16T16:30:48;4.10;;;3.10;;